Aérodrome :
LOGIN :

S'inscrire | Disclaimer

   EN    FR    IT 

 










Légende :    VFR   VFR Marginal   IFR   IFR Intensif   IFR Très Intensif
Visi : 
Plafond : 
>= 8 km
>= 3000ft
5 à 8 km
1000 à 3000 ft
1500m à 5 km
500 à 1000 ft
800 à 1500m
200 à 500 ft
< 800m
< 200 ft
Symboles :   Orages  Brouillard  Fortes neiges  Fortes précipitations  Vent > 20 kt
SIGMETs :   Divers  Orages  Givrage  Turbulence  Onde Orograph.  Cendres Volcan.







- Altitude de l'aérodrome : 245 ft
- Code IATA : BIQ
- Voir les cartes d'approche


LFBZ - Biarritz

DERNIER METAR :
  • 231800Z AUTO 18005KT 150V220 CAVOK 18/07 Q1014 NOSIG

METARs EXPIRÉS :
  • 231730Z AUTO 18005KT 130V220 CAVOK 18/06 Q1013 NOSIG
  • 231700Z AUTO 19005KT 150V230 CAVOK 18/06 Q1014 NOSIG
  • 231630Z AUTO 18004KT 140V220 CAVOK 18/06 Q1013 NOSIG
  • 231600Z AUTO 19006KT 150V230 CAVOK 19/06 Q1013 NOSIG
  • 231530Z AUTO 19006KT 150V250 CAVOK 19/06 Q1013 NOSIG

TAF TAF LFBZ
Valide du 23 à 18h jusqu'au 24 à 18h UTC


231700Z 2318/2418 19008KT CAVOK
PROB40
TEMPO 2403/2409 22015G30KT SHRA BKN070TCU
FM241400 25012KT 9999 BKN040
Pas de NOTAMs connus pour ce terrain.



MET'MAP, la Météo Aéronautique d'un coup d'oeil ! - Copyright ORBIFLY Décembre 2007 - Disclaimer

ORBIFLY MET'MAP TEAM :

Programmation & Développement : Alexandra Zaïnal
Conception & Développement : Baudouin d'Aumeries
Co-Programmation & Développement : Marc-Olivier Méhu
Soutien technique & logistique : Manuel Goepfert

Contact : metmap@orbifly.com




SOURCES & CREDITS :

   NOAA